createdAt,value
2022-09-30T00:00:56.236Z,3.30
2022-09-30T00:02:57.685Z,4.30
2022-09-30T00:04:59.163Z,5.78
2022-09-30T00:07:00.744Z,2.85
2022-09-30T00:09:02.547Z,4.65
2022-09-30T00:11:07.916Z,4.07
2022-09-30T00:13:09.347Z,3.70
2022-09-30T00:15:11.096Z,3.83
2022-09-30T00:17:12.530Z,3.40
2022-09-30T00:19:14.457Z,4.90
2022-09-30T00:21:17.178Z,3.53
2022-09-30T00:23:19.648Z,3.20
2022-09-30T00:25:21.080Z,3.70
2022-09-30T00:27:22.558Z,3.90
2022-09-30T00:29:24.034Z,3.95
2022-09-30T00:31:30.138Z,6.00
2022-09-30T00:33:31.851Z,3.85
2022-09-30T00:35:33.741Z,4.47
2022-09-30T00:37:35.205Z,4.13
2022-09-30T00:39:37.531Z,3.55
2022-09-30T00:41:39.498Z,4.15
2022-09-30T00:43:51.503Z,5.05
2022-09-30T00:45:59.234Z,4.03
2022-09-30T00:48:11.051Z,5.28
2022-09-30T00:50:12.505Z,4.30
2022-09-30T00:52:14.016Z,7.85
2022-09-30T00:54:21.366Z,4.20
2022-09-30T00:56:31.491Z,5.68
2022-09-30T00:58:40.006Z,6.43
2022-09-30T01:00:41.643Z,5.50
2022-09-30T01:02:43.169Z,5.13
2022-09-30T01:04:46.352Z,4.85
2022-09-30T01:06:48.499Z,4.30
2022-09-30T01:08:50.583Z,4.15
2022-09-30T01:10:52.016Z,4.13
2022-09-30T01:12:53.822Z,4.60
2022-09-30T01:14:58.041Z,4.55
2022-09-30T01:17:18.319Z,4.70
2022-09-30T01:19:36.653Z,5.10
2022-09-30T01:22:06.910Z,4.50
2022-09-30T01:25:00.565Z,6.88
2022-09-30T01:27:07.814Z,8.00
2022-09-30T01:29:48.320Z,5.00
2022-09-30T01:32:19.579Z,7.97
2022-09-30T01:34:37.717Z,5.85
2022-09-30T01:37:20.429Z,5.82
2022-09-30T01:39:27.255Z,5.30
2022-09-30T01:41:54.580Z,8.10
2022-09-30T01:44:12.305Z,5.03
2022-09-30T01:46:34.142Z,5.30
2022-09-30T01:48:49.190Z,5.43
2022-09-30T01:50:56.594Z,5.00
2022-09-30T01:53:07.967Z,7.30
2022-09-30T01:55:14.062Z,5.85
2022-09-30T01:57:28.786Z,4.70
2022-09-30T01:59:37.783Z,4.82
2022-09-30T02:01:48.174Z,6.32
2022-09-30T02:03:55.819Z,6.00
2022-09-30T02:06:04.127Z,5.30
2022-09-30T02:08:44.273Z,5.47
2022-09-30T02:10:53.196Z,5.40
2022-09-30T02:13:22.002Z,6.28
2022-09-30T02:15:30.914Z,5.82
2022-09-30T02:17:40.611Z,5.07
2022-09-30T02:19:59.109Z,5.40
2022-09-30T02:22:10.468Z,5.38
2022-09-30T02:24:17.254Z,5.63
2022-09-30T02:26:26.917Z,6.32
2022-09-30T02:28:29.273Z,7.20
2022-09-30T02:30:35.842Z,7.65
2022-09-30T02:33:06.847Z,6.15
2022-09-30T02:35:23.596Z,5.95
2022-09-30T02:37:32.024Z,6.85
2022-09-30T02:40:00.438Z,5.68
2022-09-30T02:42:12.363Z,6.18
2022-09-30T02:44:14.890Z,5.95
2022-09-30T02:46:48.785Z,6.38
2022-09-30T02:49:01.631Z,5.38
2022-09-30T02:51:18.485Z,6.03
2022-09-30T02:53:32.627Z,5.93
2022-09-30T02:55:40.249Z,6.55
2022-09-30T02:58:00.872Z,5.97
2022-09-30T03:00:03.509Z,7.63
2022-09-30T03:02:05.620Z,5.07
2022-09-30T03:04:10.000Z,5.15
2022-09-30T03:06:12.390Z,7.00
2022-09-30T03:08:14.097Z,5.78
2022-09-30T03:10:18.744Z,5.38
2022-09-30T03:12:32.828Z,5.85
2022-09-30T03:15:03.501Z,6.20
2022-09-30T03:17:38.880Z,6.57
2022-09-30T03:19:49.245Z,5.63
2022-09-30T03:22:24.669Z,6.10
2022-09-30T03:24:47.161Z,8.30
2022-09-30T03:27:00.007Z,5.85
2022-09-30T03:29:24.171Z,8.80
2022-09-30T03:31:39.321Z,6.18
2022-09-30T03:34:09.274Z,6.75
2022-09-30T03:36:41.996Z,7.57
2022-09-30T03:39:07.969Z,7.50
2022-09-30T03:41:22.750Z,9.07
2022-09-30T03:43:36.629Z,6.25
2022-09-30T03:46:05.087Z,7.15
2022-09-30T03:48:11.459Z,6.43
2022-09-30T03:50:19.025Z,7.57
2022-09-30T03:52:21.313Z,6.25
2022-09-30T03:54:22.960Z,6.10
2022-09-30T03:56:30.050Z,6.90
2022-09-30T03:58:31.492Z,6.65
2022-09-30T04:00:33.212Z,6.38
2022-09-30T04:02:36.742Z,6.38
2022-09-30T04:04:38.176Z,6.32
2022-09-30T04:06:39.632Z,6.85
2022-09-30T04:08:41.094Z,6.50
2022-09-30T04:10:46.615Z,7.72
2022-09-30T04:12:48.096Z,6.40
2022-09-30T04:14:49.626Z,7.40
2022-09-30T04:16:53.954Z,7.35
2022-09-30T04:18:56.786Z,7.72
2022-09-30T04:20:59.209Z,11.38
2022-09-30T04:23:01.658Z,6.43
2022-09-30T04:25:03.216Z,6.43
2022-09-30T04:27:04.950Z,8.40
2022-09-30T04:29:06.378Z,6.28
2022-09-30T04:31:08.484Z,7.53
2022-09-30T04:33:10.594Z,6.50
2022-09-30T04:35:13.583Z,6.38
2022-09-30T04:37:15.698Z,6.55
2022-09-30T04:39:17.237Z,6.25
2022-09-30T04:41:18.954Z,6.22
2022-09-30T04:43:22.300Z,9.07
2022-09-30T04:45:24.510Z,6.50
2022-09-30T04:47:26.000Z,7.35
2022-09-30T04:49:27.472Z,6.57
2022-09-30T04:51:29.981Z,6.35
2022-09-30T04:53:31.406Z,6.40
2022-09-30T04:55:32.963Z,6.57
2022-09-30T04:57:34.456Z,7.32
2022-09-30T04:59:36.741Z,9.30
2022-09-30T05:01:39.395Z,7.38
2022-09-30T05:03:41.583Z,6.75
2022-09-30T05:05:44.457Z,7.40
2022-09-30T05:07:46.013Z,7.47
2022-09-30T05:09:47.715Z,7.78
2022-09-30T05:11:49.504Z,8.38
2022-09-30T05:13:51.084Z,7.95
2022-09-30T05:15:53.002Z,7.68
2022-09-30T05:17:54.505Z,9.02
2022-09-30T05:19:56.225Z,11.88
2022-09-30T05:21:57.816Z,8.55
2022-09-30T05:23:59.266Z,8.70
2022-09-30T05:26:01.773Z,10.55
2022-09-30T05:28:03.210Z,12.18
2022-09-30T05:30:06.560Z,9.02
2022-09-30T05:32:07.975Z,8.82
2022-09-30T05:34:09.534Z,10.02
2022-09-30T05:36:14.475Z,10.05
2022-09-30T05:38:15.915Z,10.60
2022-09-30T05:40:17.689Z,10.02
2022-09-30T05:42:19.115Z,25.30
2022-09-30T05:44:21.486Z,19.42
2022-09-30T05:46:22.981Z,13.35
2022-09-30T05:48:25.683Z,15.30
2022-09-30T05:50:27.526Z,14.13
2022-09-30T05:52:28.984Z,16.13
2022-09-30T05:54:30.412Z,11.73
2022-09-30T05:56:31.906Z,11.45
2022-09-30T05:58:33.683Z,11.25
2022-09-30T06:00:35.111Z,11.55
2022-09-30T06:02:38.539Z,11.00
2022-09-30T06:04:40.123Z,13.15
2022-09-30T06:06:41.580Z,12.60
2022-09-30T06:08:43.806Z,15.55
2022-09-30T06:10:45.613Z,16.65
2022-09-30T06:12:47.035Z,11.93
2022-09-30T06:14:48.508Z,12.07
2022-09-30T06:16:50.064Z,16.40
2022-09-30T06:18:51.830Z,17.33
2022-09-30T06:20:57.978Z,13.60
2022-09-30T06:23:00.575Z,11.75
2022-09-30T06:25:06.491Z,12.30
2022-09-30T06:27:08.162Z,12.48
2022-09-30T06:29:09.731Z,13.40
2022-09-30T06:31:11.640Z,12.90
2022-09-30T06:33:14.809Z,19.30
2022-09-30T06:35:16.879Z,16.88
2022-09-30T06:37:18.569Z,14.35
2022-09-30T06:39:20.734Z,13.70
2022-09-30T06:41:27.507Z,14.45
2022-09-30T06:43:29.302Z,14.73
2022-09-30T06:45:33.412Z,16.35
2022-09-30T06:47:35.015Z,16.50
2022-09-30T06:49:46.315Z,14.18
2022-09-30T06:51:51.367Z,16.98
2022-09-30T06:53:54.146Z,14.38
2022-09-30T06:55:57.148Z,15.95
2022-09-30T06:57:58.971Z,14.07
2022-09-30T07:00:01.334Z,15.80
2022-09-30T07:02:02.882Z,16.42
2022-09-30T07:04:09.460Z,16.98
2022-09-30T07:06:13.927Z,17.80
2022-09-30T07:08:15.844Z,14.65
2022-09-30T07:10:17.348Z,14.95
2022-09-30T07:12:18.769Z,14.38
2022-09-30T07:14:20.972Z,13.82
2022-09-30T07:16:22.512Z,16.88
2022-09-30T07:18:25.244Z,13.65
2022-09-30T07:20:26.667Z,15.27
2022-09-30T07:22:29.960Z,18.13
2022-09-30T07:24:31.595Z,15.32
2022-09-30T07:26:33.384Z,14.32
2022-09-30T07:28:36.433Z,14.85
2022-09-30T07:30:43.485Z,15.20
2022-09-30T07:32:44.934Z,16.58
2022-09-30T07:34:46.428Z,17.05
2022-09-30T07:36:49.431Z,18.33
2022-09-30T07:38:51.879Z,17.30
2022-09-30T07:41:04.959Z,14.20
2022-09-30T07:43:06.373Z,14.70
2022-09-30T07:45:08.344Z,14.27
2022-09-30T07:47:14.929Z,14.70
2022-09-30T07:49:24.609Z,13.52
2022-09-30T07:51:30.173Z,15.13
2022-09-30T07:53:31.651Z,13.30
2022-09-30T07:55:34.038Z,24.65
2022-09-30T07:57:35.715Z,13.82
2022-09-30T07:59:39.983Z,16.95
2022-09-30T08:01:41.804Z,12.63
2022-09-30T08:03:45.017Z,11.85
2022-09-30T08:05:48.495Z,13.07
2022-09-30T08:07:49.928Z,12.30
2022-09-30T08:09:51.462Z,13.13
2022-09-30T08:11:53.804Z,13.48
2022-09-30T08:13:56.868Z,18.80
2022-09-30T08:15:58.397Z,11.13
2022-09-30T08:17:59.854Z,17.65
2022-09-30T08:20:01.489Z,11.50
2022-09-30T08:24:10.634Z,13.85
2022-09-30T08:26:13.083Z,12.35
2022-09-30T08:28:14.979Z,11.35
2022-09-30T08:30:16.817Z,12.82
2022-09-30T08:32:18.299Z,13.10
2022-09-30T08:34:19.826Z,12.40
2022-09-30T08:36:24.107Z,11.65
2022-09-30T08:38:25.553Z,12.82
2022-09-30T08:40:39.239Z,12.57
2022-09-30T08:42:51.635Z,11.50
2022-09-30T08:45:08.644Z,11.63
2022-09-30T08:47:10.008Z,14.82
2022-09-30T08:49:35.575Z,13.88
2022-09-30T08:51:42.464Z,11.18
2022-09-30T08:53:46.851Z,11.25
2022-09-30T08:55:48.401Z,11.80
2022-09-30T08:57:51.816Z,17.95
2022-09-30T08:59:59.226Z,11.02
2022-09-30T09:02:20.970Z,17.45
2022-09-30T09:04:22.502Z,17.40
2022-09-30T09:06:36.795Z,15.45
2022-09-30T09:08:58.457Z,9.90
2022-09-30T09:11:17.861Z,9.85
2022-09-30T09:13:25.174Z,9.75
2022-09-30T09:15:47.932Z,9.25
2022-09-30T09:18:24.311Z,10.38
2022-09-30T09:20:37.695Z,11.60
2022-09-30T09:22:39.342Z,9.30
2022-09-30T09:24:46.154Z,9.85
2022-09-30T09:26:49.453Z,9.05
2022-09-30T09:29:12.749Z,8.85
2022-09-30T09:31:17.660Z,8.95
2022-09-30T09:33:22.926Z,15.18
2022-09-30T09:35:30.382Z,9.80
2022-09-30T09:38:24.979Z,10.20
2022-09-30T09:40:44.963Z,8.48
2022-09-30T09:43:05.276Z,8.25
2022-09-30T09:45:18.308Z,9.13
2022-09-30T09:47:20.196Z,9.48
2022-09-30T09:49:23.437Z,10.57
2022-09-30T09:51:32.643Z,8.52
2022-09-30T09:53:47.213Z,7.90
2022-09-30T09:55:54.261Z,10.75
2022-09-30T09:58:06.959Z,8.50
2022-09-30T10:00:48.048Z,8.10
2022-09-30T10:03:06.519Z,8.20
2022-09-30T10:05:26.206Z,8.98
2022-09-30T10:07:29.129Z,10.45
2022-09-30T10:09:35.091Z,15.52
2022-09-30T10:11:36.543Z,9.82
2022-09-30T10:13:38.014Z,7.57
2022-09-30T10:15:42.767Z,7.22
2022-09-30T10:17:52.365Z,7.65
2022-09-30T10:19:59.799Z,7.43
2022-09-30T10:22:11.865Z,6.72
2022-09-30T10:24:31.364Z,7.00
2022-09-30T10:26:47.726Z,7.32
2022-09-30T10:29:01.143Z,6.97
2022-09-30T10:31:23.928Z,8.23
2022-09-30T10:33:33.980Z,6.80
2022-09-30T10:35:35.454Z,8.65
2022-09-30T10:37:37.069Z,10.65
2022-09-30T10:39:41.794Z,17.10
2022-09-30T10:41:43.260Z,9.95
2022-09-30T10:43:51.615Z,7.35
2022-09-30T10:46:20.910Z,8.60
2022-09-30T10:48:20.654Z,6.28
2022-09-30T10:50:26.829Z,6.57
2022-09-30T10:52:33.110Z,6.53
2022-09-30T10:54:45.311Z,7.30
2022-09-30T10:56:52.021Z,5.47
2022-09-30T10:58:56.459Z,6.03
2022-09-30T11:01:16.281Z,7.70
2022-09-30T11:03:25.024Z,6.78
2022-09-30T11:05:34.133Z,5.63
2022-09-30T11:07:54.868Z,5.50
2022-09-30T11:10:07.793Z,6.00
2022-09-30T11:12:36.805Z,6.63
2022-09-30T11:14:56.527Z,6.32
2022-09-30T11:17:09.440Z,8.43
2022-09-30T11:19:17.359Z,6.32
2022-09-30T11:21:43.324Z,9.80
2022-09-30T11:23:58.028Z,6.80
2022-09-30T11:25:59.454Z,6.05
2022-09-30T11:28:22.180Z,8.30
2022-09-30T11:30:38.718Z,8.45
2022-09-30T11:33:04.378Z,9.55
2022-09-30T11:35:15.168Z,7.28
2022-09-30T11:37:40.686Z,5.38
2022-09-30T11:40:07.279Z,6.15
2022-09-30T11:42:22.372Z,6.28
2022-09-30T11:44:37.663Z,3.72
2022-09-30T11:47:04.877Z,4.75
2022-09-30T11:49:34.281Z,3.92
2022-09-30T11:52:00.891Z,10.02
2022-09-30T11:54:39.221Z,4.93
2022-09-30T11:56:50.423Z,3.53
2022-09-30T11:58:57.506Z,3.42
2022-09-30T12:01:10.140Z,3.90
2022-09-30T12:03:22.888Z,5.13
2022-09-30T12:05:30.338Z,6.03
2022-09-30T12:07:46.128Z,5.15
2022-09-30T12:10:03.520Z,4.88
2022-09-30T12:12:16.067Z,5.00
2022-09-30T12:14:26.211Z,8.20
2022-09-30T12:16:32.025Z,3.53
2022-09-30T12:18:40.064Z,5.10
2022-09-30T12:23:19.731Z,4.65
2022-09-30T12:25:26.821Z,10.13
2022-09-30T12:27:48.486Z,6.45
2022-09-30T12:30:19.127Z,4.28
2022-09-30T12:32:54.684Z,6.43
2022-09-30T12:35:02.284Z,10.05
2022-09-30T12:37:37.218Z,8.57
2022-09-30T12:39:38.634Z,6.20
2022-09-30T12:41:49.302Z,5.03
2022-09-30T12:44:16.721Z,7.13
2022-09-30T12:46:33.160Z,7.10
2022-09-30T12:48:46.154Z,9.02
2022-09-30T12:50:54.700Z,10.35
2022-09-30T12:55:05.719Z,5.82
2022-09-30T12:57:09.262Z,6.00
2022-09-30T12:59:11.341Z,6.88
2022-09-30T13:01:18.988Z,6.32
2022-09-30T13:03:20.573Z,5.60
2022-09-30T13:05:31.251Z,6.25
2022-09-30T13:07:33.411Z,6.35
2022-09-30T13:09:37.494Z,5.10
2022-09-30T13:11:44.183Z,8.32
2022-09-30T13:14:15.335Z,5.50
2022-09-30T13:16:56.322Z,9.02
2022-09-30T13:19:01.797Z,5.68
2022-09-30T13:21:06.650Z,5.45
2022-09-30T13:23:47.205Z,11.02
2022-09-30T13:25:54.885Z,6.95
2022-09-30T13:28:14.559Z,10.47
2022-09-30T13:30:16.075Z,4.97
2022-09-30T13:32:32.899Z,4.97
2022-09-30T13:34:49.525Z,5.68
2022-09-30T13:36:50.894Z,5.25
2022-09-30T13:39:07.437Z,6.78
2022-09-30T13:41:22.655Z,5.50
2022-09-30T13:43:32.444Z,9.15
2022-09-30T13:45:39.579Z,5.50
2022-09-30T13:47:49.457Z,5.13
2022-09-30T13:50:14.609Z,5.82
2022-09-30T13:52:26.039Z,5.25
2022-09-30T13:54:34.063Z,4.72
2022-09-30T13:56:40.136Z,4.43
2022-09-30T13:59:06.653Z,5.90
2022-09-30T14:01:45.367Z,6.28
2022-09-30T14:03:55.574Z,4.57
2022-09-30T14:06:19.331Z,4.55
2022-09-30T14:08:26.832Z,4.22
2022-09-30T14:11:02.510Z,6.68
2022-09-30T14:13:18.892Z,3.78
2022-09-30T14:15:21.058Z,7.97
2022-09-30T14:17:37.353Z,4.70
2022-09-30T14:19:58.347Z,7.38
2022-09-30T14:22:05.783Z,5.78
2022-09-30T14:24:15.012Z,7.20
2022-09-30T14:26:58.446Z,3.50
2022-09-30T14:29:40.727Z,3.67
2022-09-30T14:31:46.603Z,4.32
2022-09-30T14:33:50.143Z,3.13
2022-09-30T14:35:54.513Z,3.95
2022-09-30T14:38:13.064Z,4.93
2022-09-30T14:42:31.995Z,6.68
2022-09-30T14:44:36.194Z,4.90
2022-09-30T14:46:40.957Z,3.28
2022-09-30T14:48:45.707Z,4.97
2022-09-30T14:51:04.165Z,7.18
2022-09-30T14:55:23.407Z,3.10
2022-09-30T14:57:25.196Z,5.00
2022-09-30T14:59:29.673Z,7.93
2022-09-30T15:01:35.317Z,7.32
2022-09-30T15:03:40.043Z,8.65
2022-09-30T15:05:41.579Z,3.58
2022-09-30T15:07:43.092Z,6.55
2022-09-30T15:09:46.152Z,5.47
2022-09-30T15:11:48.460Z,3.60
2022-09-30T15:13:53.411Z,7.50
2022-09-30T15:15:55.069Z,3.88
2022-09-30T15:17:56.918Z,4.07
2022-09-30T15:19:59.085Z,5.65
2022-09-30T15:22:06.340Z,5.40
2022-09-30T15:24:10.958Z,5.30
2022-09-30T15:26:13.401Z,3.88
2022-09-30T15:28:14.904Z,5.88
2022-09-30T15:30:17.194Z,3.17
2022-09-30T15:32:23.465Z,4.55
2022-09-30T15:34:25.970Z,4.47
2022-09-30T15:36:27.660Z,8.05
2022-09-30T15:38:31.474Z,6.25
2022-09-30T15:40:49.944Z,3.97
2022-09-30T15:45:32.070Z,5.07
2022-09-30T15:48:03.928Z,4.22
2022-09-30T15:50:05.735Z,4.97
2022-09-30T15:52:30.649Z,6.97
2022-09-30T15:54:37.955Z,5.80
2022-09-30T15:56:39.401Z,4.47
2022-09-30T15:58:42.346Z,5.97
2022-09-30T16:00:45.314Z,5.82
2022-09-30T16:02:46.903Z,5.78
2022-09-30T16:04:53.361Z,7.63
2022-09-30T16:07:08.733Z,5.80
2022-09-30T16:09:32.297Z,4.90
2022-09-30T16:11:42.079Z,8.77
2022-09-30T16:13:45.267Z,6.88
2022-09-30T16:15:47.934Z,4.28
2022-09-30T16:17:50.048Z,6.18
2022-09-30T16:19:57.968Z,4.78
2022-09-30T16:22:00.168Z,5.03
2022-09-30T16:24:01.685Z,4.97
2022-09-30T16:26:13.310Z,4.57
2022-09-30T16:28:15.424Z,7.13
2022-09-30T16:30:19.892Z,6.18
2022-09-30T16:32:21.692Z,4.65
2022-09-30T16:34:27.364Z,6.88
2022-09-30T16:36:29.111Z,4.30
2022-09-30T16:38:30.649Z,5.80
2022-09-30T16:40:33.476Z,4.57
2022-09-30T16:42:34.892Z,5.78
2022-09-30T16:44:37.707Z,6.70
2022-09-30T16:46:39.378Z,9.07
2022-09-30T16:48:40.879Z,16.67
2022-09-30T16:50:53.320Z,6.93
2022-09-30T16:52:55.079Z,7.47
2022-09-30T16:54:56.498Z,8.80
2022-09-30T16:57:00.335Z,7.50
2022-09-30T16:59:03.179Z,4.43
2022-09-30T17:01:04.942Z,4.35
2022-09-30T17:03:06.712Z,5.93
2022-09-30T17:05:13.231Z,6.38
2022-09-30T17:07:14.885Z,6.35
2022-09-30T17:09:16.353Z,5.28
2022-09-30T17:11:19.263Z,8.02
2022-09-30T17:13:20.710Z,4.47
2022-09-30T17:15:22.582Z,5.55
2022-09-30T17:17:24.698Z,5.50
2022-09-30T17:19:30.020Z,7.05
2022-09-30T17:21:31.441Z,9.32
2022-09-30T17:23:32.993Z,5.40
2022-09-30T17:25:40.045Z,8.50
2022-09-30T17:27:41.575Z,5.55
2022-09-30T17:29:43.012Z,6.22
2022-09-30T17:31:44.542Z,7.35
2022-09-30T17:33:45.994Z,5.25
2022-09-30T17:36:01.147Z,4.97
2022-09-30T17:38:09.154Z,6.65
2022-09-30T17:40:29.233Z,6.10
2022-09-30T17:42:49.067Z,7.57
2022-09-30T17:44:51.232Z,6.93
2022-09-30T17:47:00.100Z,5.22
2022-09-30T17:49:01.549Z,8.65
2022-09-30T17:51:03.040Z,5.50
2022-09-30T17:53:05.934Z,6.60
2022-09-30T17:55:07.645Z,6.70
2022-09-30T17:57:09.116Z,9.45
2022-09-30T17:59:10.572Z,10.52
2022-09-30T18:01:12.169Z,8.10
2022-09-30T18:03:13.735Z,7.68
2022-09-30T18:05:15.650Z,6.72
2022-09-30T18:07:17.073Z,6.35
2022-09-30T18:09:18.972Z,10.05
2022-09-30T18:11:26.019Z,6.63
2022-09-30T18:13:28.092Z,6.85
2022-09-30T18:15:29.706Z,6.47
2022-09-30T18:17:31.200Z,7.00
2022-09-30T18:19:33.145Z,34.40
2022-09-30T18:21:36.571Z,31.33
2022-09-30T18:23:38.083Z,12.55
2022-09-30T18:25:41.741Z,9.95
2022-09-30T18:27:43.226Z,8.60
2022-09-30T18:29:44.718Z,7.30
2022-09-30T18:31:46.314Z,12.00
2022-09-30T18:33:51.578Z,9.48
2022-09-30T18:35:53.237Z,6.28
2022-09-30T18:37:54.752Z,6.85
2022-09-30T18:39:56.181Z,9.10
2022-09-30T18:41:57.665Z,8.60
2022-09-30T18:44:02.559Z,6.60
2022-09-30T18:46:05.385Z,6.28
2022-09-30T18:48:07.725Z,6.13
2022-09-30T18:50:10.941Z,8.18
2022-09-30T18:52:12.459Z,11.70
2022-09-30T18:54:16.028Z,8.68
2022-09-30T18:56:21.718Z,7.65
2022-09-30T18:58:23.172Z,7.95
2022-09-30T19:00:24.688Z,9.32
2022-09-30T19:02:27.202Z,6.90
2022-09-30T19:04:29.049Z,8.90
2022-09-30T19:06:30.731Z,8.38
2022-09-30T19:08:32.216Z,6.68
2022-09-30T19:10:34.180Z,7.63
2022-09-30T19:12:37.895Z,6.60
2022-09-30T19:14:39.386Z,7.68
2022-09-30T19:16:42.003Z,8.63
2022-09-30T19:18:44.082Z,9.77
2022-09-30T19:20:45.573Z,6.43
2022-09-30T19:22:48.050Z,8.05
2022-09-30T19:24:49.501Z,7.32
2022-09-30T19:26:52.254Z,6.80
2022-09-30T19:28:54.812Z,6.40
2022-09-30T19:30:56.302Z,8.60
2022-09-30T19:33:01.303Z,7.60
2022-09-30T19:35:06.681Z,6.93
2022-09-30T19:37:16.274Z,6.20
2022-09-30T19:39:19.896Z,6.22
2022-09-30T19:41:23.786Z,8.07
2022-09-30T19:43:25.733Z,11.30
2022-09-30T19:45:28.076Z,7.55
2022-09-30T19:47:34.119Z,8.63
2022-09-30T19:49:36.070Z,8.10
2022-09-30T19:51:37.674Z,8.63
2022-09-30T19:53:42.570Z,9.18
2022-09-30T19:55:50.757Z,11.00
2022-09-30T19:57:52.493Z,7.97
2022-09-30T19:59:53.918Z,23.55
2022-09-30T20:01:55.516Z,24.17
2022-09-30T20:03:58.108Z,16.23
2022-09-30T20:06:05.773Z,9.88
2022-09-30T20:08:07.246Z,19.83
2022-09-30T20:10:09.226Z,11.00
2022-09-30T20:12:10.971Z,12.13
2022-09-30T20:14:30.842Z,7.18
2022-09-30T20:16:32.326Z,12.98
2022-09-30T20:18:35.069Z,9.25
2022-09-30T20:20:37.189Z,9.30
2022-09-30T20:22:38.861Z,10.95
2022-09-30T20:24:40.397Z,15.88
2022-09-30T20:26:43.368Z,10.48
2022-09-30T20:28:44.800Z,7.32
2022-09-30T20:30:47.038Z,13.15
2022-09-30T20:32:48.508Z,6.82
2022-09-30T20:34:49.971Z,6.70
2022-09-30T20:36:51.416Z,6.53
2022-09-30T20:38:54.268Z,9.68
2022-09-30T20:40:57.154Z,6.60
2022-09-30T20:43:04.036Z,7.63
2022-09-30T20:45:10.296Z,10.20
2022-09-30T20:47:12.008Z,6.93
2022-09-30T20:49:13.445Z,7.57
2022-09-30T20:51:18.169Z,7.07
2022-09-30T20:53:20.342Z,10.32
2022-09-30T20:55:21.790Z,9.25
2022-09-30T20:57:23.233Z,25.70
2022-09-30T20:59:24.751Z,20.13
2022-09-30T21:01:26.546Z,13.00
2022-09-30T21:03:30.065Z,7.45
2022-09-30T21:05:31.904Z,8.52
2022-09-30T21:07:35.427Z,12.30
2022-09-30T21:09:36.850Z,8.38
2022-09-30T21:11:40.991Z,6.13
2022-09-30T21:13:46.918Z,9.90
2022-09-30T21:15:57.367Z,6.90
2022-09-30T21:17:59.345Z,7.60
2022-09-30T21:20:01.108Z,6.00
2022-09-30T21:22:02.544Z,6.35
2022-09-30T21:24:04.138Z,8.57
2022-09-30T21:26:07.974Z,7.03
2022-09-30T21:28:09.464Z,6.82
2022-09-30T21:30:11.556Z,7.75
2022-09-30T21:32:13.158Z,4.80
2022-09-30T21:34:14.861Z,7.63
2022-09-30T21:36:16.313Z,6.55
2022-09-30T21:38:18.164Z,6.93
2022-09-30T21:40:19.610Z,4.68
2022-09-30T21:42:22.332Z,7.22
2022-09-30T21:44:25.587Z,8.88
2022-09-30T21:46:27.141Z,5.50
2022-09-30T21:48:30.460Z,6.47
2022-09-30T21:50:34.885Z,4.45
2022-09-30T21:52:38.034Z,4.13
2022-09-30T21:54:40.099Z,4.82
2022-09-30T21:56:42.931Z,5.70
2022-09-30T21:58:44.491Z,3.92
2022-09-30T22:00:47.038Z,5.50
2022-09-30T22:02:48.612Z,4.18
2022-09-30T22:04:50.052Z,3.42
2022-09-30T22:06:51.552Z,3.88
2022-09-30T22:08:52.972Z,4.60
2022-09-30T22:10:54.459Z,3.65
2022-09-30T22:12:55.913Z,3.28
2022-09-30T22:14:57.316Z,3.60
2022-09-30T22:16:59.415Z,7.82
2022-09-30T22:19:02.777Z,3.97
2022-09-30T22:21:07.451Z,8.30
2022-09-30T22:23:08.913Z,4.05
2022-09-30T22:25:10.439Z,4.60
2022-09-30T22:27:12.069Z,2.70
2022-09-30T22:29:13.652Z,4.00
2022-09-30T22:31:20.181Z,5.47
2022-09-30T22:33:40.398Z,4.32
2022-09-30T22:36:00.878Z,2.90
2022-09-30T22:38:17.502Z,2.40
2022-09-30T22:40:18.994Z,2.80
2022-09-30T22:42:20.434Z,4.70
2022-09-30T22:44:25.428Z,2.63
2022-09-30T22:46:26.930Z,4.88
2022-09-30T22:48:30.036Z,3.60
2022-09-30T22:50:35.408Z,7.25
2022-09-30T22:52:36.851Z,2.80
2022-09-30T22:54:38.333Z,4.20
2022-09-30T22:56:39.765Z,4.60
2022-09-30T22:58:41.189Z,6.53
2022-09-30T23:00:52.839Z,4.30
2022-09-30T23:02:55.479Z,2.28
2022-09-30T23:04:56.997Z,4.45
2022-09-30T23:06:58.532Z,3.15
2022-09-30T23:09:02.842Z,5.53
2022-09-30T23:11:04.356Z,5.30
2022-09-30T23:13:08.897Z,2.42
2022-09-30T23:15:10.540Z,3.80
2022-09-30T23:17:13.068Z,4.03
2022-09-30T23:19:14.543Z,2.90
2022-09-30T23:21:18.495Z,2.72
2022-09-30T23:23:20.071Z,3.47
2022-09-30T23:25:21.542Z,3.78
2022-09-30T23:27:23.030Z,4.65
2022-09-30T23:29:24.846Z,3.60
2022-09-30T23:31:26.894Z,4.97
2022-09-30T23:33:28.406Z,4.53
2022-09-30T23:35:29.856Z,3.78
2022-09-30T23:37:31.327Z,4.20
2022-09-30T23:39:32.797Z,1.90
2022-09-30T23:41:34.796Z,3.33
2022-09-30T23:43:37.103Z,5.28
2022-09-30T23:45:38.740Z,3.65
2022-09-30T23:47:40.185Z,3.20
2022-09-30T23:49:42.019Z,1.80
2022-09-30T23:51:43.622Z,2.00
2022-09-30T23:53:45.316Z,2.95
2022-09-30T23:55:58.996Z,2.13
2022-09-30T23:58:00.475Z,2.55
